createdAt,value
2018-07-30T00:00:25.440Z,0.00
2018-07-30T00:01:31.881Z,0.00
2018-07-30T00:02:38.324Z,0.00
2018-07-30T00:03:45.274Z,0.00
2018-07-30T00:04:51.212Z,0.00
2018-07-30T00:05:57.669Z,0.00
2018-07-30T00:07:04.093Z,0.00
2018-07-30T00:08:10.518Z,0.00
2018-07-30T00:09:17.458Z,0.00
2018-07-30T00:10:23.400Z,0.00
2018-07-30T00:11:29.846Z,0.00
2018-07-30T00:12:36.271Z,0.00
2018-07-30T00:13:42.707Z,0.00
2018-07-30T00:14:49.152Z,0.00
2018-07-30T00:15:57.074Z,0.00
2018-07-30T00:17:03.057Z,0.00
2018-07-30T00:18:08.670Z,0.00
2018-07-30T00:19:14.889Z,0.00
2018-07-30T00:20:21.342Z,0.00
2018-07-30T00:21:27.812Z,0.00
2018-07-30T00:22:34.195Z,0.00
2018-07-30T00:23:41.076Z,0.00
2018-07-30T00:24:47.057Z,0.00
2018-07-30T00:25:53.473Z,0.00
2018-07-30T00:27:00.402Z,0.00
2018-07-30T00:28:06.340Z,0.00
2018-07-30T00:29:12.784Z,0.00
2018-07-30T00:30:19.706Z,0.00
2018-07-30T00:31:25.686Z,0.00
2018-07-30T00:32:32.058Z,0.00
2018-07-30T00:33:38.493Z,0.00
2018-07-30T00:34:44.926Z,0.00
2018-07-30T00:35:51.334Z,0.00
2018-07-30T00:36:57.783Z,0.00
2018-07-30T00:38:04.197Z,0.00
2018-07-30T00:39:10.624Z,0.00
2018-07-30T00:40:17.055Z,0.00
2018-07-30T00:41:23.477Z,0.00
2018-07-30T00:42:29.913Z,0.00
2018-07-30T00:43:36.328Z,0.00
2018-07-30T00:44:42.747Z,0.00
2018-07-30T00:45:49.171Z,0.00
2018-07-30T00:46:55.601Z,0.00
2018-07-30T00:48:02.529Z,0.00
2018-07-30T00:49:08.506Z,0.00
2018-07-30T00:50:14.873Z,0.00
2018-07-30T00:51:21.799Z,0.00
2018-07-30T00:52:27.726Z,0.00
2018-07-30T00:53:34.627Z,0.00
2018-07-30T00:54:40.560Z,0.00
2018-07-30T00:55:46.984Z,0.00
2018-07-30T00:56:53.502Z,0.00
2018-07-30T00:57:59.816Z,0.00
2018-07-30T00:59:06.254Z,0.00
2018-07-30T01:00:12.654Z,0.00
2018-07-30T01:01:19.076Z,0.00
2018-07-30T01:02:25.995Z,0.00
2018-07-30T01:03:31.916Z,0.00
2018-07-30T01:04:38.814Z,0.00
2018-07-30T01:05:44.755Z,0.00
2018-07-30T01:06:51.190Z,0.00
2018-07-30T01:07:57.620Z,0.00
2018-07-30T01:09:04.016Z,0.00
2018-07-30T01:10:10.434Z,0.00
2018-07-30T01:11:16.845Z,0.00
2018-07-30T01:12:23.276Z,0.00
2018-07-30T01:13:29.684Z,0.00
2018-07-30T01:14:36.099Z,0.00
2018-07-30T01:15:42.519Z,0.00
2018-07-30T01:16:49.438Z,0.00
2018-07-30T01:17:55.360Z,0.00
2018-07-30T01:19:01.770Z,0.00
2018-07-30T01:20:08.280Z,0.00
2018-07-30T01:21:14.603Z,0.00
2018-07-30T01:22:21.020Z,0.00
2018-07-30T01:23:27.424Z,0.00
2018-07-30T01:24:33.841Z,0.00
2018-07-30T01:25:40.246Z,0.00
2018-07-30T01:26:46.666Z,0.00
2018-07-30T01:27:53.084Z,0.00
2018-07-30T01:28:59.481Z,0.00
2018-07-30T01:30:05.896Z,0.00
2018-07-30T01:31:12.302Z,0.00
2018-07-30T01:32:19.226Z,0.00
2018-07-30T01:33:25.625Z,0.00
2018-07-30T01:34:31.530Z,0.00
2018-07-30T01:35:37.936Z,0.00
2018-07-30T01:36:44.352Z,0.00
2018-07-30T01:37:50.777Z,0.00
2018-07-30T01:38:57.188Z,0.00
2018-07-30T01:40:03.578Z,0.00
2018-07-30T01:41:10.483Z,0.00
2018-07-30T01:42:16.904Z,0.00
2018-07-30T01:43:22.805Z,0.00
2018-07-30T01:44:29.209Z,0.00
2018-07-30T01:45:42.568Z,0.00
2018-07-30T01:46:50.839Z,0.00
2018-07-30T01:47:56.763Z,0.00
2018-07-30T01:49:03.163Z,0.00
2018-07-30T01:50:09.560Z,0.00
2018-07-30T01:51:15.955Z,0.00
2018-07-30T01:52:22.366Z,0.00
2018-07-30T01:53:28.781Z,0.00
2018-07-30T01:54:35.167Z,0.00
2018-07-30T01:55:41.578Z,0.00
2018-07-30T01:56:48.927Z,0.00
2018-07-30T01:57:54.400Z,0.00
2018-07-30T01:59:00.803Z,0.00
2018-07-30T02:00:07.199Z,0.00
2018-07-30T02:01:13.591Z,0.00
2018-07-30T02:02:20.010Z,0.00
2018-07-30T02:03:26.411Z,0.00
2018-07-30T02:04:32.807Z,0.00
2018-07-30T02:05:39.709Z,0.00
2018-07-30T02:06:45.623Z,0.00
2018-07-30T02:07:52.018Z,0.00
2018-07-30T02:08:58.916Z,0.00
2018-07-30T02:10:04.826Z,0.00
2018-07-30T02:11:11.232Z,0.00
2018-07-30T02:12:17.627Z,0.00
2018-07-30T02:13:24.033Z,0.00
2018-07-30T02:14:30.426Z,0.00
2018-07-30T02:15:36.830Z,0.00
2018-07-30T02:16:43.232Z,0.00
2018-07-30T02:17:49.641Z,0.00
2018-07-30T02:18:57.037Z,0.00
2018-07-30T02:20:02.428Z,0.00
2018-07-30T02:21:08.826Z,0.00
2018-07-30T02:22:15.218Z,0.00
2018-07-30T02:23:22.564Z,0.00
2018-07-30T02:24:28.513Z,0.00
2018-07-30T02:25:34.408Z,0.00
2018-07-30T02:26:40.809Z,0.00
2018-07-30T02:27:47.214Z,0.00
2018-07-30T02:28:53.616Z,0.00
2018-07-30T02:30:00.017Z,0.00
2018-07-30T02:31:06.399Z,0.00
2018-07-30T02:32:12.797Z,0.00
2018-07-30T02:33:19.204Z,0.00
2018-07-30T02:34:25.600Z,0.00
2018-07-30T02:35:31.983Z,0.00
2018-07-30T02:36:38.382Z,0.00
2018-07-30T02:37:44.788Z,0.00
2018-07-30T02:38:51.185Z,0.00
2018-07-30T02:39:57.568Z,0.00
2018-07-30T02:41:03.963Z,0.00
2018-07-30T02:42:10.357Z,0.00
2018-07-30T02:43:16.764Z,0.00
2018-07-30T02:44:23.158Z,0.00
2018-07-30T02:45:29.559Z,0.00
2018-07-30T02:46:36.948Z,0.00
2018-07-30T02:47:42.352Z,0.00
2018-07-30T02:48:49.252Z,0.00
2018-07-30T02:49:55.134Z,0.00
2018-07-30T02:51:01.533Z,0.00
2018-07-30T02:52:07.926Z,0.00
2018-07-30T02:53:14.329Z,0.00
2018-07-30T02:54:21.201Z,0.00
2018-07-30T02:55:27.120Z,0.00
2018-07-30T02:56:33.506Z,0.00
2018-07-30T02:57:40.002Z,0.00
2018-07-30T02:58:46.297Z,0.00
2018-07-30T02:59:52.701Z,0.00
2018-07-30T03:00:59.579Z,0.00
2018-07-30T03:02:05.478Z,0.00
2018-07-30T03:03:12.382Z,0.00
2018-07-30T03:04:18.275Z,0.00
2018-07-30T03:05:25.146Z,0.00
2018-07-30T03:06:31.057Z,0.00
2018-07-30T03:07:37.447Z,0.00
2018-07-30T03:08:43.855Z,0.00
2018-07-30T03:09:50.230Z,0.00
2018-07-30T03:10:56.617Z,0.00
2018-07-30T03:12:03.511Z,0.00
2018-07-30T03:13:09.411Z,4.00
2018-07-30T03:14:15.797Z,4.00
2018-07-30T03:15:22.188Z,4.00
2018-07-30T03:16:29.582Z,4.00
2018-07-30T03:17:34.966Z,4.00
2018-07-30T03:18:41.366Z,8.00
2018-07-30T03:19:47.755Z,4.00
2018-07-30T03:20:54.137Z,4.00
2018-07-30T03:22:00.521Z,8.00
2018-07-30T03:23:06.920Z,12.00
2018-07-30T03:24:13.320Z,12.00
2018-07-30T03:25:19.689Z,16.00
2018-07-30T03:26:26.075Z,20.00
2018-07-30T03:27:32.466Z,20.00
2018-07-30T03:28:38.910Z,24.00
2018-07-30T03:29:45.248Z,28.00
2018-07-30T03:30:51.635Z,36.00
2018-07-30T03:31:58.029Z,36.00
2018-07-30T03:33:04.424Z,44.00
2018-07-30T03:34:10.793Z,52.00
2018-07-30T03:35:17.690Z,64.00
2018-07-30T03:36:23.576Z,68.00
2018-07-30T03:37:29.957Z,80.00
2018-07-30T03:38:36.357Z,92.00
2018-07-30T03:39:42.744Z,108.00
2018-07-30T03:40:49.131Z,120.00
2018-07-30T03:41:55.513Z,140.00
2018-07-30T03:43:01.901Z,156.00
2018-07-30T03:44:08.301Z,176.00
2018-07-30T03:45:14.702Z,200.00
2018-07-30T03:46:21.063Z,224.00
2018-07-30T03:47:27.442Z,248.00
2018-07-30T03:48:33.829Z,276.00
2018-07-30T03:49:40.212Z,304.00
2018-07-30T03:50:46.593Z,332.00
2018-07-30T03:51:52.974Z,364.00
2018-07-30T03:52:59.860Z,396.00
2018-07-30T03:54:05.754Z,428.00
2018-07-30T03:55:12.138Z,464.00
2018-07-30T03:56:18.515Z,496.00
2018-07-30T03:57:24.902Z,532.00
2018-07-30T03:58:31.290Z,572.00
2018-07-30T03:59:37.666Z,608.00
2018-07-30T04:00:44.048Z,648.00
2018-07-30T04:01:50.426Z,692.00
2018-07-30T04:02:56.815Z,732.00
2018-07-30T04:04:03.209Z,776.00
2018-07-30T04:05:09.567Z,820.00
2018-07-30T04:06:16.011Z,868.00
2018-07-30T04:07:22.349Z,912.00
2018-07-30T04:08:28.730Z,960.00
2018-07-30T04:09:35.106Z,1004.00
2018-07-30T04:10:41.489Z,1052.00
2018-07-30T04:11:47.867Z,1096.00
2018-07-30T04:12:54.250Z,1140.00
2018-07-30T04:14:00.640Z,1192.00
2018-07-30T04:15:07.497Z,1240.00
2018-07-30T04:16:13.393Z,1284.00
2018-07-30T04:17:19.773Z,1328.00
2018-07-30T04:18:26.153Z,1376.00
2018-07-30T04:19:32.530Z,1424.00
2018-07-30T04:20:38.906Z,1476.00
2018-07-30T04:21:45.294Z,1524.00
2018-07-30T04:22:51.684Z,1564.00
2018-07-30T04:23:58.056Z,1612.00
2018-07-30T04:25:04.439Z,1656.00
2018-07-30T04:26:10.821Z,1696.00
2018-07-30T04:27:17.699Z,1744.00
2018-07-30T04:28:23.608Z,1784.00
2018-07-30T04:29:29.970Z,1828.00
2018-07-30T04:30:36.848Z,1872.00
2018-07-30T04:31:42.749Z,1912.00
2018-07-30T04:32:49.632Z,1956.00
2018-07-30T04:33:55.532Z,1992.00
2018-07-30T04:35:01.918Z,2032.00
2018-07-30T04:36:08.321Z,2068.00
2018-07-30T04:37:14.690Z,2104.00
2018-07-30T04:38:21.079Z,2140.00
2018-07-30T04:39:27.482Z,2176.00
2018-07-30T04:40:33.861Z,2216.00
2018-07-30T04:41:40.250Z,2252.00
2018-07-30T04:42:46.639Z,2288.00
2018-07-30T04:43:53.102Z,2328.00
2018-07-30T04:44:59.454Z,2364.00
2018-07-30T04:46:06.324Z,2396.00
2018-07-30T04:47:12.239Z,2432.00
2018-07-30T04:48:18.620Z,2464.00
2018-07-30T04:49:25.119Z,2496.00
2018-07-30T04:50:31.426Z,2528.00
2018-07-30T04:51:37.834Z,2556.00
2018-07-30T04:52:44.249Z,2592.00
2018-07-30T04:53:50.639Z,2620.00
2018-07-30T04:54:57.042Z,2648.00
2018-07-30T04:56:03.453Z,2672.00
2018-07-30T04:57:09.854Z,2696.00
2018-07-30T04:58:16.266Z,2720.00
2018-07-30T04:59:22.680Z,2740.00
2018-07-30T05:00:29.088Z,2768.00
2018-07-30T05:01:35.499Z,2796.00
2018-07-30T05:02:41.903Z,2820.00
2018-07-30T05:03:48.379Z,2848.00
2018-07-30T05:04:55.248Z,2872.00
2018-07-30T05:06:01.169Z,2892.00
2018-07-30T05:07:07.578Z,2912.00
2018-07-30T05:08:15.013Z,2936.00
2018-07-30T05:09:20.548Z,2956.00
2018-07-30T05:10:26.854Z,2980.00
2018-07-30T05:11:33.774Z,3000.00
2018-07-30T05:12:39.716Z,3024.00
2018-07-30T05:13:46.131Z,3048.00
2018-07-30T05:14:52.577Z,3072.00
2018-07-30T05:15:58.992Z,3092.00
2018-07-30T05:17:05.411Z,3112.00
2018-07-30T05:18:11.867Z,3136.00
2018-07-30T05:19:18.336Z,3148.00
2018-07-30T05:20:25.202Z,3172.00
2018-07-30T05:21:31.157Z,3188.00
2018-07-30T05:22:37.577Z,3208.00
2018-07-30T05:23:44.026Z,3228.00
2018-07-30T05:24:50.473Z,3244.00
2018-07-30T05:25:56.910Z,3260.00
2018-07-30T05:27:03.346Z,3272.00
2018-07-30T05:28:09.794Z,3288.00
2018-07-30T05:29:16.252Z,3300.00
2018-07-30T05:30:22.689Z,3320.00
2018-07-30T05:31:29.644Z,3336.00
2018-07-30T05:32:35.622Z,3352.00
2018-07-30T05:33:42.042Z,3372.00
2018-07-30T05:34:48.514Z,3388.00
2018-07-30T05:35:54.996Z,3404.00
2018-07-30T05:37:01.416Z,3424.00
2018-07-30T05:38:07.856Z,3444.00
2018-07-30T05:39:14.326Z,3456.00
2018-07-30T05:40:20.775Z,3480.00
2018-07-30T05:41:27.237Z,3496.00
2018-07-30T05:42:34.277Z,3512.00
2018-07-30T05:43:40.282Z,3524.00
2018-07-30T05:44:46.632Z,3540.00
2018-07-30T05:45:53.099Z,3552.00
2018-07-30T05:46:59.585Z,3560.00
2018-07-30T05:48:06.020Z,3572.00
2018-07-30T05:49:13.005Z,3580.00
2018-07-30T05:50:19.468Z,3588.00
2018-07-30T05:51:25.447Z,3600.00
2018-07-30T05:52:31.928Z,3612.00
2018-07-30T05:53:38.399Z,3632.00
2018-07-30T05:54:44.883Z,3644.00
2018-07-30T05:55:52.358Z,3660.00
2018-07-30T05:56:57.842Z,3668.00
2018-07-30T05:58:04.320Z,3684.00
2018-07-30T05:59:11.303Z,3700.00
2018-07-30T06:00:17.288Z,3712.00
2018-07-30T06:01:23.782Z,3724.00
2018-07-30T06:02:31.261Z,3736.00
2018-07-30T06:03:36.769Z,3752.00
2018-07-30T06:04:43.262Z,3768.00
2018-07-30T06:05:50.744Z,3780.00
2018-07-30T06:06:56.255Z,3788.00
2018-07-30T06:08:02.733Z,3800.00
2018-07-30T06:09:09.241Z,3804.00
2018-07-30T06:10:15.759Z,3812.00
2018-07-30T06:11:22.245Z,3816.00
2018-07-30T06:12:28.753Z,3828.00
2018-07-30T06:13:35.267Z,3832.00
2018-07-30T06:14:41.785Z,3844.00
2018-07-30T06:15:48.296Z,3860.00
2018-07-30T06:16:54.808Z,3876.00
2018-07-30T06:18:01.825Z,3896.00
2018-07-30T06:19:07.857Z,3916.00
2018-07-30T06:20:14.403Z,3936.00
2018-07-30T06:21:20.906Z,3952.00
2018-07-30T06:22:27.415Z,3964.00
2018-07-30T06:23:33.950Z,3976.00
2018-07-30T06:24:40.484Z,3988.00
2018-07-30T06:25:47.007Z,4000.00
2018-07-30T06:26:53.548Z,4008.00
2018-07-30T06:28:00.075Z,4028.00
2018-07-30T06:29:06.611Z,4040.00
2018-07-30T06:30:13.160Z,4060.00
2018-07-30T06:31:19.692Z,4076.00
2018-07-30T06:32:26.238Z,4096.00
2018-07-30T06:33:32.776Z,4120.00
2018-07-30T06:34:39.332Z,4144.00
2018-07-30T06:35:45.887Z,4164.00
2018-07-30T06:36:52.434Z,4180.00
2018-07-30T06:37:58.997Z,4192.00
2018-07-30T06:39:05.555Z,4212.00
2018-07-30T06:40:12.107Z,4224.00
2018-07-30T06:41:18.677Z,4236.00
2018-07-30T06:42:25.240Z,4252.00
2018-07-30T06:43:31.802Z,4264.00
2018-07-30T06:44:38.370Z,4276.00
2018-07-30T06:45:44.948Z,4288.00
2018-07-30T06:46:51.518Z,4304.00
2018-07-30T06:47:58.624Z,4316.00
2018-07-30T06:49:04.685Z,4328.00
2018-07-30T06:50:11.276Z,4336.00
2018-07-30T06:51:17.853Z,4348.00
2018-07-30T06:52:24.449Z,4372.00
2018-07-30T06:53:31.040Z,4396.00
2018-07-30T06:54:37.638Z,4416.00
2018-07-30T06:55:44.229Z,4440.00
2018-07-30T06:56:51.313Z,4456.00
2018-07-30T06:57:57.404Z,4468.00
2018-07-30T06:59:04.506Z,4476.00
2018-07-30T07:00:10.624Z,4484.00
2018-07-30T07:01:17.234Z,4496.00
2018-07-30T07:02:23.845Z,4508.00
2018-07-30T07:03:30.936Z,4520.00
2018-07-30T07:04:37.066Z,4528.00
2018-07-30T07:05:43.715Z,4536.00
2018-07-30T07:06:50.293Z,4552.00
2018-07-30T07:07:56.936Z,4568.00
2018-07-30T07:09:03.545Z,4584.00
2018-07-30T07:10:10.278Z,4592.00
2018-07-30T07:11:16.816Z,4612.00
2018-07-30T07:12:23.440Z,4624.00
2018-07-30T07:13:30.078Z,4648.00
2018-07-30T07:14:37.707Z,4668.00
2018-07-30T07:15:43.353Z,4688.00
2018-07-30T07:16:50.069Z,4704.00
2018-07-30T07:17:56.655Z,4724.00
2018-07-30T07:19:03.290Z,4736.00
2018-07-30T07:20:09.956Z,4760.00
2018-07-30T07:21:16.665Z,4792.00
2018-07-30T07:22:23.274Z,4816.00
2018-07-30T07:23:30.450Z,4844.00
2018-07-30T07:24:37.612Z,4880.00
2018-07-30T07:25:43.267Z,4916.00
2018-07-30T07:26:49.957Z,4960.00
2018-07-30T07:27:56.700Z,5024.00
2018-07-30T07:29:03.300Z,5096.00
2018-07-30T07:30:09.980Z,5184.00
2018-07-30T07:31:16.658Z,5324.00
2018-07-30T07:32:23.346Z,5624.00
2018-07-30T07:33:30.052Z,5892.00
2018-07-30T07:34:36.726Z,5956.00
2018-07-30T07:35:43.431Z,5888.00
2018-07-30T07:36:50.116Z,5872.00
2018-07-30T07:37:56.814Z,5836.00
2018-07-30T07:39:03.511Z,5640.00
2018-07-30T07:40:10.300Z,5396.00
2018-07-30T07:41:16.905Z,5336.00
2018-07-30T07:42:23.613Z,5300.00
2018-07-30T07:43:30.314Z,5284.00
2018-07-30T07:44:37.061Z,5264.00
2018-07-30T07:45:43.716Z,5248.00
2018-07-30T07:46:50.437Z,5196.00
2018-07-30T07:47:57.138Z,5180.00
2018-07-30T07:49:03.864Z,5260.00
2018-07-30T07:50:10.679Z,5340.00
2018-07-30T07:51:17.293Z,5444.00
2018-07-30T07:52:24.014Z,5548.00
2018-07-30T07:53:30.728Z,5700.00
2018-07-30T07:54:37.459Z,5856.00
2018-07-30T07:55:44.173Z,6056.00
2018-07-30T07:56:50.964Z,6192.00
2018-07-30T07:57:57.623Z,6208.00
2018-07-30T07:59:04.378Z,6104.00
2018-07-30T08:00:11.104Z,6116.00
2018-07-30T08:01:17.830Z,5868.00
2018-07-30T08:02:24.573Z,5868.00
2018-07-30T08:03:32.342Z,5792.00
2018-07-30T08:04:38.070Z,5892.00
2018-07-30T08:05:44.801Z,5880.00
2018-07-30T08:06:51.556Z,5936.00
2018-07-30T08:07:58.303Z,5952.00
2018-07-30T08:09:05.063Z,6204.00
2018-07-30T08:10:11.807Z,6352.00
2018-07-30T08:11:18.557Z,6396.00
2018-07-30T08:12:25.326Z,6428.00
2018-07-30T08:13:32.071Z,6520.00
2018-07-30T08:14:38.828Z,6588.00
2018-07-30T08:15:45.580Z,6600.00
2018-07-30T08:16:52.403Z,6508.00
2018-07-30T08:17:59.126Z,6476.00
2018-07-30T08:19:05.956Z,6424.00
2018-07-30T08:20:12.674Z,6424.00
2018-07-30T08:21:19.446Z,6408.00
2018-07-30T08:22:26.227Z,6380.00
2018-07-30T08:23:33.018Z,6388.00
2018-07-30T08:24:39.802Z,6336.00
2018-07-30T08:25:46.583Z,6328.00
2018-07-30T08:26:53.375Z,6332.00
2018-07-30T08:28:00.278Z,6416.00
2018-07-30T08:29:07.513Z,6408.00
2018-07-30T08:30:13.779Z,6324.00
2018-07-30T08:31:20.578Z,6224.00
2018-07-30T08:32:27.380Z,6248.00
2018-07-30T08:33:34.288Z,6376.00
2018-07-30T08:34:40.983Z,6512.00
2018-07-30T08:35:48.258Z,6532.00
2018-07-30T08:36:54.619Z,6512.00
2018-07-30T08:38:01.427Z,6496.00
2018-07-30T08:39:08.246Z,6516.00
2018-07-30T08:40:15.066Z,6516.00
2018-07-30T08:41:21.863Z,6572.00
2018-07-30T08:42:28.682Z,6608.00
2018-07-30T08:43:35.509Z,6712.00
2018-07-30T08:44:42.330Z,6808.00
2018-07-30T08:45:49.147Z,6776.00
2018-07-30T08:46:55.969Z,6664.00
2018-07-30T08:48:02.802Z,6652.00
2018-07-30T08:49:10.136Z,6756.00
2018-07-30T08:50:16.469Z,6828.00
2018-07-30T08:51:23.293Z,6924.00
2018-07-30T08:52:30.147Z,6916.00
2018-07-30T08:53:36.982Z,6904.00
2018-07-30T08:54:43.823Z,6852.00
2018-07-30T08:55:50.711Z,6836.00
2018-07-30T08:56:57.515Z,6896.00
2018-07-30T08:58:04.859Z,6972.00
2018-07-30T08:59:11.205Z,7100.00
2018-07-30T09:00:18.550Z,7256.00
2018-07-30T09:01:24.926Z,7224.00
2018-07-30T09:02:31.768Z,7108.00
2018-07-30T09:03:38.646Z,7084.00
2018-07-30T09:04:45.488Z,7084.00
2018-07-30T09:05:52.372Z,7328.00
2018-07-30T09:06:59.240Z,7536.00
2018-07-30T09:08:06.109Z,7580.00
2018-07-30T09:09:12.967Z,7380.00
2018-07-30T09:10:19.833Z,7344.00
2018-07-30T09:11:26.721Z,7420.00
2018-07-30T09:12:33.594Z,7564.00
2018-07-30T09:13:40.492Z,7612.00
2018-07-30T09:14:47.360Z,7632.00
2018-07-30T09:15:54.737Z,7620.00
2018-07-30T09:17:01.128Z,7564.00
2018-07-30T09:18:08.097Z,7492.00
2018-07-30T09:19:14.902Z,7488.00
2018-07-30T09:20:21.787Z,7632.00
2018-07-30T09:21:28.692Z,7784.00
2018-07-30T09:22:35.580Z,7736.00
2018-07-30T09:23:42.476Z,7880.00
2018-07-30T09:24:49.377Z,7972.00
2018-07-30T09:25:56.276Z,7968.00
2018-07-30T09:27:04.340Z,7960.00
2018-07-30T09:28:10.081Z,8052.00
2018-07-30T09:29:16.996Z,8292.00
2018-07-30T09:30:23.897Z,8500.00
2018-07-30T09:31:30.831Z,8696.00
2018-07-30T09:32:37.771Z,8876.00
2018-07-30T09:33:44.657Z,9260.00
2018-07-30T09:34:51.573Z,9932.00
2018-07-30T09:35:58.489Z,10920.00
2018-07-30T09:37:05.428Z,12400.00
2018-07-30T09:38:12.362Z,13708.00
2018-07-30T09:39:19.343Z,14132.00
2018-07-30T09:40:26.257Z,14672.00
2018-07-30T09:41:33.214Z,15264.00
2018-07-30T09:42:40.285Z,15360.00
2018-07-30T09:43:47.154Z,14128.00
2018-07-30T09:44:54.691Z,13420.00
2018-07-30T09:46:01.111Z,12856.00
2018-07-30T09:47:08.099Z,13176.00
2018-07-30T09:48:15.083Z,13136.00
2018-07-30T09:49:22.084Z,13640.00
2018-07-30T09:50:29.098Z,12552.00
2018-07-30T09:51:36.060Z,11396.00
2018-07-30T09:52:43.065Z,11196.00
2018-07-30T09:53:50.041Z,9812.00
2018-07-30T09:54:57.046Z,9616.00
2018-07-30T09:56:04.059Z,8172.00
2018-07-30T09:57:11.009Z,8244.00
2018-07-30T09:58:17.990Z,7372.00
2018-07-30T09:59:24.976Z,7208.00
2018-07-30T10:00:31.955Z,7400.00
2018-07-30T10:01:38.925Z,7584.00
2018-07-30T10:02:45.902Z,8040.00
2018-07-30T10:03:52.872Z,8100.00
2018-07-30T10:04:59.877Z,8216.00
2018-07-30T10:06:06.837Z,8300.00
2018-07-30T10:07:13.780Z,8220.00
2018-07-30T10:08:20.751Z,8276.00
2018-07-30T10:09:27.742Z,8016.00
2018-07-30T10:10:34.712Z,8104.00
2018-07-30T10:11:41.731Z,8064.00
2018-07-30T10:12:48.671Z,8088.00
2018-07-30T10:13:55.658Z,8068.00
2018-07-30T10:15:02.633Z,8084.00
2018-07-30T10:16:09.604Z,8080.00
2018-07-30T10:17:16.578Z,8116.00
2018-07-30T10:18:23.609Z,8124.00
2018-07-30T10:19:30.540Z,8184.00
2018-07-30T10:20:38.028Z,8280.00
2018-07-30T10:21:44.509Z,8320.00
2018-07-30T10:22:51.483Z,8316.00
2018-07-30T10:23:58.509Z,8216.00
2018-07-30T10:25:05.479Z,8076.00
2018-07-30T10:26:12.453Z,7976.00
2018-07-30T10:27:19.449Z,7896.00
2018-07-30T10:28:26.428Z,7880.00
2018-07-30T10:29:33.444Z,7888.00
2018-07-30T10:30:40.492Z,7900.00
2018-07-30T10:31:47.738Z,7888.00
2018-07-30T10:32:54.428Z,7900.00
2018-07-30T10:34:01.428Z,7916.00
2018-07-30T10:35:08.435Z,7936.00
2018-07-30T10:36:15.420Z,7920.00
2018-07-30T10:37:22.934Z,7904.00
2018-07-30T10:38:29.449Z,7916.00
2018-07-30T10:39:36.453Z,7916.00
2018-07-30T10:40:43.459Z,7868.00
2018-07-30T10:41:50.964Z,7776.00
2018-07-30T10:42:57.465Z,7728.00
2018-07-30T10:44:04.481Z,7744.00
2018-07-30T10:45:11.500Z,7772.00
2018-07-30T10:46:18.553Z,7808.00
2018-07-30T10:47:25.520Z,7824.00
2018-07-30T10:48:32.536Z,7836.00
2018-07-30T10:49:39.560Z,7840.00
2018-07-30T10:50:46.562Z,7844.00
2018-07-30T10:51:53.586Z,7900.00
2018-07-30T10:53:00.600Z,7964.00
2018-07-30T10:54:07.802Z,7972.00
2018-07-30T10:55:14.632Z,7896.00
2018-07-30T10:56:22.130Z,7820.00
2018-07-30T10:57:28.669Z,7788.00
2018-07-30T10:58:35.673Z,7832.00
2018-07-30T10:59:42.699Z,7932.00
2018-07-30T11:00:49.729Z,8104.00
2018-07-30T11:01:56.751Z,8208.00
2018-07-30T11:03:03.772Z,8216.00
2018-07-30T11:04:10.811Z,8136.00
2018-07-30T11:05:17.835Z,8072.00
2018-07-30T11:06:24.856Z,8080.00
2018-07-30T11:07:31.872Z,8140.00
2018-07-30T11:08:38.904Z,8212.00
2018-07-30T11:09:46.034Z,8276.00
2018-07-30T11:10:52.958Z,8360.00
2018-07-30T11:11:59.983Z,8456.00
2018-07-30T11:13:07.011Z,8552.00
2018-07-30T11:14:14.059Z,8620.00
2018-07-30T11:15:21.144Z,8712.00
2018-07-30T11:16:28.282Z,8808.00
2018-07-30T11:17:35.509Z,8868.00
2018-07-30T11:18:42.819Z,8920.00
2018-07-30T11:19:50.209Z,9044.00
2018-07-30T11:20:57.653Z,9296.00
2018-07-30T11:22:05.170Z,9860.00
2018-07-30T11:23:13.258Z,34048.00
2018-07-30T11:24:20.367Z,98720.00
2018-07-30T11:25:28.111Z,112800.00
2018-07-30T11:26:35.741Z,113184.00
2018-07-30T11:27:43.491Z,113440.00
2018-07-30T11:28:51.367Z,111776.00
2018-07-30T11:30:00.095Z,110240.00
2018-07-30T11:31:06.940Z,110784.00
2018-07-30T11:32:14.797Z,112384.00
2018-07-30T11:33:22.703Z,114592.00
2018-07-30T11:34:30.632Z,114944.00
2018-07-30T11:35:38.585Z,114720.00
2018-07-30T11:36:46.563Z,111584.00
2018-07-30T11:37:54.563Z,107424.00
2018-07-30T11:39:02.576Z,108736.00
2018-07-30T11:40:10.619Z,107616.00
2018-07-30T11:41:18.676Z,101088.00
2018-07-30T11:42:26.761Z,99552.00
2018-07-30T11:43:34.850Z,107968.00
2018-07-30T11:44:42.959Z,110240.00
2018-07-30T11:45:51.083Z,111392.00
2018-07-30T11:46:59.207Z,112544.00
2018-07-30T11:48:07.359Z,114240.00
2018-07-30T11:49:15.507Z,113792.00
2018-07-30T11:50:23.679Z,116480.00
2018-07-30T11:51:31.853Z,112448.00
2018-07-30T11:52:40.023Z,111136.00
2018-07-30T11:53:48.213Z,114528.00
2018-07-30T11:54:56.403Z,113504.00
2018-07-30T11:56:04.611Z,111776.00
2018-07-30T11:57:12.814Z,112320.00
2018-07-30T11:58:21.033Z,112416.00
2018-07-30T11:59:29.275Z,109760.00
2018-07-30T12:00:37.529Z,110944.00
2018-07-30T12:01:45.851Z,106496.00
2018-07-30T12:02:54.077Z,105568.00
2018-07-30T12:04:02.390Z,108064.00
2018-07-30T12:05:10.695Z,111456.00
2018-07-30T12:06:19.017Z,109856.00
2018-07-30T12:07:27.319Z,109376.00
2018-07-30T12:08:35.622Z,111936.00
2018-07-30T12:09:43.926Z,112128.00
2018-07-30T12:10:52.245Z,18624.00
2018-07-30T12:12:00.493Z,98432.00
2018-07-30T12:13:08.642Z,106592.00
2018-07-30T12:14:16.809Z,114144.00
2018-07-30T12:15:25.010Z,108960.00
2018-07-30T12:16:33.254Z,108928.00
2018-07-30T12:17:41.505Z,110976.00
2018-07-30T12:18:49.794Z,107360.00
2018-07-30T12:19:58.100Z,105184.00
2018-07-30T12:21:06.426Z,106624.00
2018-07-30T12:22:14.788Z,107200.00
2018-07-30T12:23:23.111Z,109408.00
2018-07-30T12:24:31.491Z,110304.00
2018-07-30T12:25:39.884Z,111584.00
2018-07-30T12:26:48.286Z,111392.00
2018-07-30T12:27:56.680Z,105120.00
2018-07-30T12:29:05.085Z,100256.00
2018-07-30T12:30:13.555Z,98464.00
2018-07-30T12:31:21.923Z,102944.00
2018-07-30T12:32:30.320Z,106400.00
2018-07-30T12:33:40.114Z,105664.00
2018-07-30T12:34:47.126Z,111072.00
2018-07-30T12:35:55.485Z,18764.00
2018-07-30T12:37:03.733Z,112512.00
2018-07-30T12:38:11.939Z,16948.00
2018-07-30T12:39:20.035Z,64672.00
2018-07-30T12:40:28.121Z,109856.00
2018-07-30T12:41:36.219Z,109056.00
2018-07-30T12:42:44.372Z,107840.00
2018-07-30T12:43:52.533Z,106144.00
2018-07-30T12:45:01.762Z,104512.00
2018-07-30T12:46:08.959Z,103456.00
2018-07-30T12:47:17.199Z,103168.00
2018-07-30T12:48:25.460Z,99744.00
2018-07-30T12:49:33.737Z,17528.00
2018-07-30T12:50:41.947Z,17356.00
2018-07-30T12:51:50.053Z,18248.00
2018-07-30T12:52:58.103Z,104288.00
2018-07-30T12:54:06.278Z,100192.00
2018-07-30T12:55:14.301Z,104896.00
2018-07-30T12:56:22.494Z,102272.00
2018-07-30T12:57:30.707Z,101184.00
2018-07-30T12:58:38.970Z,56576.00
2018-07-30T12:59:47.228Z,22112.00
2018-07-30T13:00:55.411Z,24032.00
2018-07-30T13:02:03.541Z,100672.00
2018-07-30T13:03:11.753Z,102880.00
2018-07-30T13:04:20.069Z,112256.00
2018-07-30T13:05:28.120Z,106432.00
2018-07-30T13:06:36.380Z,106816.00
2018-07-30T13:07:44.670Z,110720.00
2018-07-30T13:08:53.005Z,112256.00
2018-07-30T13:10:01.365Z,112096.00
2018-07-30T13:11:09.758Z,72640.00
2018-07-30T13:12:18.083Z,112928.00
2018-07-30T13:13:26.450Z,89184.00
2018-07-30T13:14:34.822Z,89536.00
2018-07-30T13:15:43.200Z,95712.00
2018-07-30T13:16:51.552Z,48832.00
2018-07-30T13:17:59.828Z,55072.00
2018-07-30T13:19:08.097Z,66816.00
2018-07-30T13:20:16.325Z,88640.00
2018-07-30T13:21:24.969Z,86624.00
2018-07-30T13:22:32.743Z,76832.00
2018-07-30T13:23:40.938Z,69472.00
2018-07-30T13:24:49.307Z,115136.00
2018-07-30T13:25:57.285Z,122912.00
2018-07-30T13:27:05.460Z,122976.00
2018-07-30T13:28:13.689Z,120736.00
2018-07-30T13:29:21.944Z,118912.00
2018-07-30T13:30:30.219Z,115744.00
2018-07-30T13:31:38.526Z,114400.00
2018-07-30T13:32:46.876Z,116128.00
2018-07-30T13:33:55.201Z,117408.00
2018-07-30T13:35:03.857Z,115360.00
2018-07-30T13:36:11.953Z,113568.00
2018-07-30T13:37:20.820Z,114720.00
2018-07-30T13:38:28.760Z,116448.00
2018-07-30T13:39:37.153Z,117984.00
2018-07-30T13:40:45.660Z,117248.00
2018-07-30T13:41:53.992Z,112736.00